Time;durP1;ratioP1;P1;durP2;ratioP2;P2;SDS_P1;SDS_P2;PMS_P1;PMS_P2;Temp;Humidity;BMP_temperature;BMP_pressure;BME280_temperature;BME280_humidity;BME280_pressure;Samples;Min_cycle;Max_cycle;Signal;HPM_P1;HPM_P2
2021/12/24 00:02:12;;;;;;;130.13;36.70;;;4.80;99.90;;;;;;5032979;28;20458;-70
2021/12/24 00:04:40;;;;;;;188.93;46.03;;;4.80;99.90;;;;;;5033161;28;20439;-70
2021/12/24 00:07:08;;;;;;;205.67;50.07;;;4.90;99.90;;;;;;5027505;28;20451;-70
2021/12/24 00:09:38;;;;;;;177.70;46.47;;;4.90;99.90;;;;;;5033313;28;20470;-70
2021/12/24 00:12:13;;;;;;;115.13;44.53;;;4.90;99.90;;;;;;5032700;28;20469;-70
2021/12/24 00:14:47;;;;;;;76.97;38.70;;;4.90;99.90;;;;;;5035870;28;20423;-70
2021/12/24 00:17:20;;;;;;;198.67;41.30;;;4.90;99.90;;;;;;5036874;28;20540;-70
2021/12/24 00:20:03;;;;;;;67.27;35.10;;;4.90;99.90;;;;;;5037527;28;20462;-70
2021/12/24 00:23:05;;;;;;;178.43;50.87;;;4.90;99.90;;;;;;5037221;28;20429;-70
2021/12/24 00:36:48;;;;;;;195.83;43.53;;;5.00;99.90;;;;;;5018313;28;20843;-70
2021/12/24 00:39:16;;;;;;;166.50;53.27;;;5.10;99.90;;;;;;5018200;28;20454;-70
2021/12/24 00:41:44;;;;;;;122.57;41.43;;;5.00;99.90;;;;;;5035799;28;20494;-70
2021/12/24 00:44:12;;;;;;;198.07;47.70;;;5.10;99.90;;;;;;5018138;28;20444;-70
2021/12/24 00:46:40;;;;;;;173.60;50.87;;;5.10;99.90;;;;;;5035818;28;20530;-70
2021/12/24 00:49:10;;;;;;;178.10;44.77;;;5.10;99.90;;;;;;5036172;28;20474;-70
2021/12/24 00:51:55;;;;;;;105.87;39.70;;;5.20;99.90;;;;;;5016290;28;20818;-70
2021/12/24 00:57:09;;;;;;;98.37;39.27;;;5.20;99.90;;;;;;4998349;28;20527;-70
2021/12/24 00:59:37;;;;;;;164.70;44.00;;;5.20;99.90;;;;;;5016174;28;20439;-70
2021/12/24 01:02:05;;;;;;;201.50;42.23;;;5.20;99.90;;;;;;5014479;28;20467;-70
2021/12/24 01:04:35;;;;;;;161.80;38.43;;;5.20;99.90;;;;;;5018529;28;20546;-70
2021/12/24 01:07:03;;;;;;;157.47;40.30;;;5.20;99.90;;;;;;5034314;28;20862;-71
2021/12/24 01:09:31;;;;;;;216.50;45.57;;;5.30;99.90;;;;;;5033798;28;20482;-71
2021/12/24 01:11:59;;;;;;;150.57;37.83;;;5.30;99.90;;;;;;5022989;28;20471;-70
2021/12/24 01:14:29;;;;;;;222.90;50.57;;;5.30;99.90;;;;;;5017579;28;20451;-71
2021/12/24 01:17:08;;;;;;;133.87;37.97;;;5.30;99.90;;;;;;5034045;28;20486;-70
2021/12/24 01:19:40;;;;;;;197.43;55.53;;;5.30;99.90;;;;;;5034328;28;20455;-70
2021/12/24 01:22:51;;;;;;;166.47;44.20;;;5.30;99.90;;;;;;5035240;28;20481;-70
2021/12/24 01:25:21;;;;;;;129.67;47.03;;;5.30;99.90;;;;;;5017481;28;20537;-70
2021/12/24 01:28:03;;;;;;;174.30;48.37;;;5.30;99.90;;;;;;5035646;28;20424;-70
2021/12/24 01:39:02;;;;;;;104.23;39.13;;;5.40;99.90;;;;;;5033662;28;20442;-71
2021/12/24 01:44:15;;;;;;;184.27;43.10;;;5.40;99.90;;;;;;5019916;28;20574;-70
2021/12/24 01:46:44;;;;;;;135.20;38.90;;;5.40;99.90;;;;;;5033446;28;20979;-70
2021/12/24 01:49:12;;;;;;;198.07;50.37;;;5.40;99.90;;;;;;5016819;28;20473;-70
2021/12/24 01:51:41;;;;;;;167.53;50.10;;;5.40;99.90;;;;;;5013921;28;20550;-70
2021/12/24 01:54:11;;;;;;;274.83;46.83;;;5.40;99.90;;;;;;5016842;28;20879;-70
2021/12/24 01:56:40;;;;;;;230.57;41.27;;;5.40;99.90;;;;;;5033281;28;20438;-70
2021/12/24 01:59:08;;;;;;;210.80;44.87;;;5.50;99.90;;;;;;5019511;28;20483;-70
2021/12/24 02:01:36;;;;;;;158.13;38.63;;;5.50;99.90;;;;;;5033081;28;21075;-70
2021/12/24 02:04:05;;;;;;;246.47;53.93;;;5.50;99.90;;;;;;5034393;28;20450;-70
2021/12/24 02:06:34;;;;;;;153.30;38.43;;;5.50;99.90;;;;;;5016538;28;20443;-70
2021/12/24 02:09:04;;;;;;;168.17;44.03;;;5.50;99.90;;;;;;5016455;28;20455;-71
2021/12/24 02:11:37;;;;;;;149.00;37.33;;;5.50;99.90;;;;;;5016428;28;20463;-71
2021/12/24 02:14:07;;;;;;;173.50;39.90;;;5.50;99.90;;;;;;5017492;28;20455;-71
2021/12/24 02:16:52;;;;;;;157.77;40.73;;;5.50;99.90;;;;;;5037624;28;20877;-70
2021/12/24 02:28:24;;;;;;;143.03;34.40;;;5.50;99.90;;;;;;5032762;28;20443;-70
2021/12/24 02:30:53;;;;;;;140.73;36.83;;;5.60;99.90;;;;;;5024825;28;20510;-71
2021/12/24 02:33:21;;;;;;;141.00;37.50;;;5.60;99.90;;;;;;5032552;28;20439;-71
2021/12/24 02:35:50;;;;;;;117.90;37.90;;;5.60;99.90;;;;;;5033287;28;20455;-70
2021/12/24 02:38:20;;;;;;;254.50;48.13;;;5.60;99.90;;;;;;5032289;28;20478;-70
2021/12/24 02:40:49;;;;;;;134.43;37.10;;;5.60;99.90;;;;;;5031944;28;20923;-70
2021/12/24 02:43:20;;;;;;;215.33;45.97;;;5.60;99.90;;;;;;5015797;28;20530;-70
2021/12/24 02:45:53;;;;;;;149.30;40.37;;;5.60;99.90;;;;;;5034077;28;20510;-70
2021/12/24 02:48:48;;;;;;;165.43;41.13;;;5.60;99.90;;;;;;5033714;28;20420;-70
2021/12/24 02:54:03;;;;;;;108.90;32.93;;;5.70;99.90;;;;;;5032299;28;20523;-71
2021/12/24 02:56:34;;;;;;;144.10;39.53;;;5.70;99.90;;;;;;5022174;28;20537;-71
2021/12/24 02:59:06;;;;;;;229.00;47.90;;;5.70;99.90;;;;;;5023456;28;20867;-71
2021/12/24 03:01:36;;;;;;;191.57;40.40;;;5.70;99.90;;;;;;5033397;28;20933;-70
2021/12/24 03:04:06;;;;;;;192.67;42.47;;;5.70;99.90;;;;;;5032216;28;20442;-70
2021/12/24 03:06:37;;;;;;;224.63;46.53;;;5.70;99.90;;;;;;5032231;28;20466;-71
2021/12/24 03:09:09;;;;;;;200.00;42.33;;;5.70;99.90;;;;;;5032205;28;20486;-70
2021/12/24 03:11:37;;;;;;;201.10;42.20;;;5.70;99.90;;;;;;5031993;28;20489;-71
2021/12/24 03:14:07;;;;;;;222.73;47.73;;;5.80;99.90;;;;;;5032109;28;20443;-71
2021/12/24 03:16:37;;;;;;;240.83;48.53;;;5.80;99.90;;;;;;5032132;28;20530;-71
2021/12/24 03:19:07;;;;;;;296.13;64.97;;;5.80;99.90;;;;;;5032077;28;20446;-71
2021/12/24 03:21:44;;;;;;;185.63;46.23;;;5.80;99.90;;;;;;5030239;28;20467;-71
2021/12/24 03:26:59;;;;;;;167.87;45.07;;;5.90;99.90;;;;;;5033225;28;21030;-71
2021/12/24 03:29:27;;;;;;;217.53;40.80;;;5.90;99.90;;;;;;5033529;28;20844;-71
2021/12/24 03:31:55;;;;;;;285.60;50.17;;;5.90;99.90;;;;;;5033049;28;20486;-71
2021/12/24 03:34:24;;;;;;;209.17;42.93;;;5.90;99.90;;;;;;5033137;28;20445;-71
2021/12/24 03:36:53;;;;;;;203.00;42.97;;;5.90;99.90;;;;;;5033469;28;20434;-71
2021/12/24 03:39:28;;;;;;;183.37;42.13;;;5.90;99.90;;;;;;5031928;28;20871;-70
2021/12/24 03:41:58;;;;;;;206.23;41.53;;;6.00;99.90;;;;;;5031608;28;20582;-71
2021/12/24 03:44:32;;;;;;;225.17;44.50;;;6.00;99.90;;;;;;5031873;28;20442;-71
2021/12/24 03:47:07;;;;;;;192.30;40.37;;;6.00;99.90;;;;;;5032553;28;20453;-71
2021/12/24 03:49:39;;;;;;;174.30;36.63;;;6.00;99.90;;;;;;5019699;28;20446;-71
2021/12/24 03:52:23;;;;;;;205.70;46.27;;;6.00;99.90;;;;;;5019074;28;21057;-71
2021/12/24 03:54:56;;;;;;;190.33;39.43;;;6.00;99.90;;;;;;5035652;28;20954;-71
2021/12/24 03:57:28;;;;;;;250.47;49.57;;;6.00;99.90;;;;;;5019312;28;20457;-71
2021/12/24 04:00:18;;;;;;;168.93;40.87;;;6.10;99.90;;;;;;5037223;28;20473;-71
2021/12/24 04:02:55;;;;;;;234.03;39.47;;;6.10;99.90;;;;;;5036100;28;20441;-71
2021/12/24 04:05:26;;;;;;;197.83;44.47;;;6.10;99.90;;;;;;5037185;28;20924;-71
2021/12/24 04:08:13;;;;;;;213.40;37.83;;;6.10;99.90;;;;;;5036878;28;20574;-71
2021/12/24 04:11:00;;;;;;;174.30;37.43;;;6.10;99.90;;;;;;5020337;28;20991;-72
2021/12/24 04:13:33;;;;;;;130.37;30.20;;;6.20;99.90;;;;;;5036518;28;20506;-72
2021/12/24 04:16:02;;;;;;;143.37;31.50;;;6.20;99.90;;;;;;5034538;28;20455;-71
2021/12/24 04:18:41;;;;;;;170.30;37.03;;;6.20;99.90;;;;;;5035182;28;20471;-71
2021/12/24 04:26:43;;;;;;;275.33;47.43;;;6.20;99.90;;;;;;5035021;28;20856;-71
2021/12/24 04:29:12;;;;;;;205.03;41.10;;;6.30;99.90;;;;;;5035074;28;20447;-71
2021/12/24 04:31:44;;;;;;;185.47;39.37;;;6.30;99.90;;;;;;5035041;28;20498;-71
2021/12/24 04:34:44;;;;;;;190.50;42.77;;;6.30;99.90;;;;;;5020873;28;20459;-71
2021/12/24 04:51:13;;;;;;;141.17;30.20;;;6.30;99.90;;;;;;5034517;28;20475;-71
2021/12/24 05:02:26;;;;;;;159.70;35.27;;;6.40;99.90;;;;;;5034595;28;20990;-71
2021/12/24 05:05:23;;;;;;;180.80;33.43;;;6.40;99.90;;;;;;5035956;28;20426;-71
2021/12/24 05:10:40;;;;;;;178.60;33.67;;;6.40;99.90;;;;;;5025146;28;20526;-71
2021/12/24 05:13:13;;;;;;;175.77;34.57;;;6.40;99.90;;;;;;5017640;28;20440;-71
2021/12/24 05:16:06;;;;;;;194.83;36.10;;;6.50;99.90;;;;;;5035707;28;20555;-71
2021/12/24 05:21:32;;;;;;;273.87;41.80;;;6.50;99.90;;;;;;5034358;28;20462;-71
2021/12/24 05:22:10;;;;;;;200.43;38.03;;;6.50;99.90;;;;;;5035373;28;20470;-71
2021/12/24 05:24:41;;;;;;;184.50;37.60;;;6.50;99.90;;;;;;5017447;28;20504;-71
2021/12/24 05:27:27;;;;;;;165.87;32.33;;;6.50;99.90;;;;;;5035295;28;20814;-71
2021/12/24 05:29:56;;;;;;;198.33;36.53;;;6.50;99.90;;;;;;5033673;28;20453;-71
2021/12/24 05:32:25;;;;;;;167.47;37.20;;;6.50;99.90;;;;;;5033587;28;20470;-71
2021/12/24 05:34:54;;;;;;;154.60;25.30;;;6.60;99.90;;;;;;5033595;28;20451;-71
2021/12/24 05:37:22;;;;;;;206.47;41.17;;;6.60;99.90;;;;;;5033627;28;20450;-71
2021/12/24 05:39:50;;;;;;;144.90;39.40;;;6.60;99.90;;;;;;5021390;28;20448;-71
2021/12/24 05:42:27;;;;;;;268.13;43.57;;;6.60;99.90;;;;;;5033363;28;20466;-71
2021/12/24 05:45:02;;;;;;;85.27;24.40;;;6.60;99.90;;;;;;5016915;28;20814;-71
2021/12/24 05:47:50;;;;;;;287.37;51.90;;;6.60;99.90;;;;;;5035164;28;20415;-71
2021/12/24 05:50:19;;;;;;;197.27;41.87;;;6.60;99.90;;;;;;5031852;28;20493;-71
2021/12/24 05:52:47;;;;;;;177.83;30.23;;;6.70;99.90;;;;;;5034905;28;20820;-71
2021/12/24 05:55:34;;;;;;;265.37;39.97;;;6.70;99.90;;;;;;5025716;28;20465;-72
2021/12/24 05:58:21;;;;;;;198.93;37.37;;;6.70;99.90;;;;;;5033179;28;20952;-71
2021/12/24 06:00:50;;;;;;;214.03;32.77;;;6.70;99.90;;;;;;5033132;28;20547;-71
2021/12/24 06:03:24;;;;;;;119.57;29.20;;;6.80;99.90;;;;;;5033346;28;20437;-71
2021/12/24 06:05:53;;;;;;;215.63;34.83;;;6.80;99.90;;;;;;5034260;28;20452;-71
2021/12/24 06:08:22;;;;;;;192.60;36.13;;;6.80;99.90;;;;;;5034181;28;20517;-71
2021/12/24 06:10:50;;;;;;;254.23;40.20;;;6.80;99.90;;;;;;5033847;28;20787;-71
2021/12/24 06:13:18;;;;;;;275.43;43.13;;;6.80;99.90;;;;;;5033915;28;20539;-71
2021/12/24 06:15:47;;;;;;;269.03;40.93;;;6.80;99.90;;;;;;5034212;28;20435;-71
2021/12/24 06:18:23;;;;;;;213.30;42.10;;;6.80;99.90;;;;;;5034029;28;20435;-71
2021/12/24 06:20:52;;;;;;;237.70;47.90;;;6.80;99.90;;;;;;5014518;28;20458;-71
2021/12/24 06:23:22;;;;;;;283.30;37.77;;;6.90;99.90;;;;;;5014584;28;20437;-71
2021/12/24 06:25:51;;;;;;;181.20;27.43;;;6.90;99.90;;;;;;5018802;28;20446;-71
2021/12/24 06:28:20;;;;;;;182.90;36.33;;;6.90;99.90;;;;;;5033877;28;20448;-71
2021/12/24 06:30:48;;;;;;;225.50;31.57;;;6.90;99.90;;;;;;5033837;28;20462;-72
2021/12/24 06:33:16;;;;;;;131.57;24.93;;;6.90;99.90;;;;;;5032566;28;20842;-71
2021/12/24 06:35:45;;;;;;;227.20;38.27;;;7.00;99.90;;;;;;5016171;28;20463;-72
2021/12/24 06:38:15;;;;;;;191.97;30.53;;;7.00;99.90;;;;;;5033839;28;20440;-72
2021/12/24 06:40:43;;;;;;;216.93;29.43;;;7.00;99.90;;;;;;5018670;28;20486;-72
2021/12/24 06:43:11;;;;;;;250.50;42.53;;;7.00;99.90;;;;;;5032404;28;20542;-72
2021/12/24 06:45:39;;;;;;;245.97;38.80;;;7.00;99.90;;;;;;5033790;28;20447;-72
2021/12/24 06:48:08;;;;;;;193.03;40.90;;;7.00;99.90;;;;;;5033716;28;20432;-72
2021/12/24 06:50:36;;;;;;;218.07;38.13;;;7.00;99.90;;;;;;5033534;28;20478;-73
2021/12/24 06:53:04;;;;;;;206.40;37.13;;;7.00;99.90;;;;;;5033599;28;20471;-72
2021/12/24 06:55:34;;;;;;;172.53;37.60;;;7.00;99.90;;;;;;5033744;28;20474;-72
2021/12/24 06:58:06;;;;;;;207.87;37.07;;;7.00;99.90;;;;;;5032587;28;20457;-73
2021/12/24 07:00:35;;;;;;;174.40;35.57;;;7.00;99.90;;;;;;5015693;28;20563;-73
2021/12/24 07:03:07;;;;;;;232.40;38.13;;;7.00;99.90;;;;;;5016420;28;20434;-73
2021/12/24 07:05:35;;;;;;;177.53;29.43;;;7.00;99.90;;;;;;5033508;28;20452;-73
2021/12/24 07:08:03;;;;;;;269.30;33.70;;;6.90;99.90;;;;;;5032123;28;20458;-72
2021/12/24 07:10:33;;;;;;;241.27;44.23;;;6.90;99.90;;;;;;5033675;28;20471;-72
2021/12/24 07:13:02;;;;;;;199.27;34.13;;;6.90;99.90;;;;;;5033897;28;20986;-72
2021/12/24 07:15:30;;;;;;;236.37;34.60;;;6.90;99.90;;;;;;5019388;28;20466;-72
2021/12/24 07:17:58;;;;;;;170.50;31.60;;;6.90;99.90;;;;;;5033323;28;20443;-72
2021/12/24 07:20:26;;;;;;;221.40;29.87;;;6.90;99.90;;;;;;5033280;28;20505;-72
2021/12/24 07:22:54;;;;;;;269.13;43.67;;;6.90;99.90;;;;;;5036230;28;20474;-73
2021/12/24 07:25:23;;;;;;;16.20;11.40;;;6.90;99.90;;;;;;5038723;28;20436;-71
2021/12/24 07:27:52;;;;;;;175.03;33.33;;;6.90;99.90;;;;;;5039816;28;20216;-72
2021/12/24 07:30:21;;;;;;;150.20;25.63;;;6.90;99.90;;;;;;5039906;28;20565;-73
2021/12/24 07:32:50;;;;;;;245.50;35.23;;;6.90;99.90;;;;;;5039760;28;20475;-72
2021/12/24 07:35:18;;;;;;;283.07;40.83;;;6.90;99.90;;;;;;5038504;28;20972;-73
2021/12/24 07:37:47;;;;;;;212.17;38.37;;;6.90;99.90;;;;;;5038105;28;20452;-73
2021/12/24 07:40:16;;;;;;;147.57;28.20;;;6.80;99.90;;;;;;5040832;28;20463;-72
2021/12/24 07:42:45;;;;;;;81.57;17.85;;;6.80;99.90;;;;;;5039722;28;20448;-73
2021/12/24 07:45:18;;;;;;;181.43;27.33;;;6.80;99.90;;;;;;5038512;28;20296;-71
2021/12/24 07:47:55;;;;;;;226.00;36.23;;;6.80;99.90;;;;;;5040457;28;20786;-72
2021/12/24 07:53:12;;;;;;;219.23;29.83;;;6.80;99.90;;;;;;5038432;28;21025;-72
2021/12/24 07:55:41;;;;;;;186.20;34.37;;;6.80;99.90;;;;;;5039828;28;20423;-71
2021/12/24 07:58:10;;;;;;;241.47;37.97;;;6.80;99.90;;;;;;5039327;28;20997;-72
2021/12/24 08:00:41;;;;;;;131.77;24.80;;;6.80;99.90;;;;;;5039024;28;20474;-72
2021/12/24 08:03:09;;;;;;;269.47;36.67;;;6.70;99.90;;;;;;5034554;28;20802;-72
2021/12/24 08:05:40;;;;;;;169.23;28.60;;;6.70;99.90;;;;;;5039408;28;20439;-72
2021/12/24 08:08:33;;;;;;;195.13;25.27;;;6.70;99.90;;;;;;5039759;28;20497;-72
2021/12/24 08:11:05;;;;;;;165.60;24.47;;;6.70;99.90;;;;;;5039476;28;20504;-72
2021/12/24 08:13:33;;;;;;;226.53;38.57;;;6.60;99.90;;;;;;5039555;28;20573;-72
2021/12/24 08:16:02;;;;;;;178.97;32.27;;;6.50;99.90;;;;;;5039409;28;20442;-72
2021/12/24 08:18:55;;;;;;;157.27;25.60;;;6.40;99.90;;;;;;5039415;28;20418;-72
2021/12/24 08:21:46;;;;;;;242.97;40.33;;;6.40;99.90;;;;;;5038985;28;20508;-72
2021/12/24 08:24:20;;;;;;;236.67;40.50;;;6.30;99.90;;;;;;5024106;28;20442;-72
2021/12/24 08:27:38;;;;;;;243.10;31.67;;;6.30;99.90;;;;;;5039347;28;20782;-72
2021/12/24 08:30:08;;;;;;;109.30;19.27;;;6.20;99.90;;;;;;5039087;28;20449;-72
2021/12/24 08:32:40;;;;;;;152.93;22.83;;;6.20;99.90;;;;;;5039070;28;20467;-72
2021/12/24 08:35:33;;;;;;;206.67;33.97;;;6.10;99.90;;;;;;5035758;28;20461;-72
2021/12/24 08:38:03;;;;;;;186.67;29.50;;;6.10;99.90;;;;;;5036109;28;20545;-72
2021/12/24 08:40:33;;;;;;;229.50;35.17;;;6.10;99.90;;;;;;5036423;28;20454;-72
2021/12/24 08:43:27;;;;;;;177.47;28.17;;;6.10;99.90;;;;;;5016325;28;20455;-72
2021/12/24 08:46:23;;;;;;;153.67;31.77;;;6.10;99.90;;;;;;5033244;28;20479;-72
2021/12/24 08:48:58;;;;;;;257.00;34.10;;;6.00;99.90;;;;;;5024541;28;20817;-71
2021/12/24 08:51:32;;;;;;;146.43;21.83;;;6.00;99.90;;;;;;5035908;28;20497;-72
2021/12/24 08:54:02;;;;;;;97.50;27.43;;;6.00;99.90;;;;;;5035718;28;20510;-71
2021/12/24 08:56:30;;;;;;;145.07;32.40;;;6.00;99.90;;;;;;5034510;28;20450;-73
2021/12/24 08:58:58;;;;;;;151.07;34.33;;;5.90;99.90;;;;;;5035964;28;20958;-73
2021/12/24 09:01:26;;;;;;;242.00;37.37;;;5.90;99.90;;;;;;5035382;28;20467;-73
2021/12/24 09:03:58;;;;;;;202.13;32.27;;;5.90;99.90;;;;;;5035548;28;20501;-72
2021/12/24 09:06:26;;;;;;;214.87;34.23;;;5.80;99.90;;;;;;5036216;28;20455;-72
2021/12/24 09:09:14;;;;;;;82.77;30.03;;;5.80;99.90;;;;;;5036076;28;20775;-73
2021/12/24 09:12:08;;;;;;;182.60;35.93;;;5.70;99.90;;;;;;5035479;28;20481;-73
2021/12/24 09:15:02;;;;;;;222.47;37.00;;;5.70;99.90;;;;;;5035442;28;20793;-72
2021/12/24 09:17:30;;;;;;;148.43;32.27;;;5.60;99.90;;;;;;5035335;28;20442;-72
2021/12/24 09:20:00;;;;;;;122.63;24.73;;;5.60;99.90;;;;;;5035337;28;20525;-72
2021/12/24 09:22:48;;;;;;;210.03;37.43;;;5.50;99.90;;;;;;5034970;28;20441;-72
2021/12/24 09:25:45;;;;;;;211.67;42.23;;;5.50;99.90;;;;;;5035567;28;20813;-72
2021/12/24 09:28:14;;;;;;;229.93;40.10;;;5.50;99.90;;;;;;5035122;28;20812;-72
2021/12/24 09:30:42;;;;;;;126.33;34.53;;;5.40;99.90;;;;;;5035017;28;20472;-72
2021/12/24 09:33:10;;;;;;;139.50;25.93;;;5.40;99.90;;;;;;5033599;28;20477;-72
2021/12/24 09:35:41;;;;;;;176.47;36.83;;;5.40;99.90;;;;;;5035256;28;20431;-72
2021/12/24 09:38:10;;;;;;;124.20;30.47;;;5.40;99.90;;;;;;5017209;28;20545;-73
2021/12/24 09:40:38;;;;;;;166.83;40.50;;;5.40;99.90;;;;;;5017049;28;20455;-73
2021/12/24 09:43:06;;;;;;;132.63;34.47;;;5.30;99.90;;;;;;5032388;28;20516;-73
2021/12/24 09:45:34;;;;;;;218.97;40.93;;;5.30;99.90;;;;;;5034139;28;20461;-72
2021/12/24 09:48:03;;;;;;;234.30;43.37;;;5.30;99.90;;;;;;5034325;28;20789;-72
2021/12/24 09:50:31;;;;;;;174.63;37.43;;;5.30;99.90;;;;;;5033458;28;20467;-72
2021/12/24 09:53:01;;;;;;;242.30;45.47;;;5.20;99.90;;;;;;5034768;28;20467;-72
2021/12/24 09:55:30;;;;;;;296.00;44.53;;;5.20;99.90;;;;;;5034717;28;20791;-72
2021/12/24 09:57:59;;;;;;;206.57;48.83;;;5.20;99.90;;;;;;5034474;28;20435;-72
2021/12/24 10:00:28;;;;;;;276.17;42.33;;;5.20;99.90;;;;;;5034373;28;20549;-72
2021/12/24 10:02:59;;;;;;;110.87;32.50;;;5.20;99.90;;;;;;5034436;28;20808;-72
2021/12/24 10:05:32;;;;;;;254.70;46.10;;;5.20;99.90;;;;;;5034667;28;20426;-73
2021/12/24 10:08:24;;;;;;;151.83;40.80;;;5.10;99.90;;;;;;5034972;28;20445;-72
2021/12/24 10:10:54;;;;;;;148.57;42.17;;;5.10;99.90;;;;;;5036198;28;20475;-73
2021/12/24 10:13:38;;;;;;;83.80;27.93;;;5.10;99.90;;;;;;5034328;28;20467;-73
2021/12/24 10:16:08;;;;;;;149.07;44.40;;;5.10;99.90;;;;;;5034414;28;20461;-73
2021/12/24 10:18:39;;;;;;;180.07;43.10;;;5.00;99.90;;;;;;5034108;28;20530;-72
2021/12/24 10:21:12;;;;;;;186.50;39.53;;;5.00;99.90;;;;;;5034702;28;20529;-72
2021/12/24 10:23:49;;;;;;;155.80;34.20;;;5.00;99.90;;;;;;5034376;28;20487;-72
2021/12/24 10:26:24;;;;;;;153.80;35.47;;;5.00;99.90;;;;;;5040725;28;20437;-73
2021/12/24 10:28:59;;;;;;;146.10;31.27;;;4.90;99.90;;;;;;5035770;28;20473;-73
2021/12/24 10:31:30;;;;;;;137.00;31.03;;;4.90;99.90;;;;;;5033886;28;20465;-73
2021/12/24 10:34:12;;;;;;;116.73;30.17;;;4.90;99.90;;;;;;5033828;28;20498;-73
2021/12/24 10:37:00;;;;;;;160.00;29.03;;;4.90;99.90;;;;;;5033734;28;20448;-73
2021/12/24 10:39:37;;;;;;;270.13;36.17;;;4.90;99.90;;;;;;5034384;28;20434;-73
2021/12/24 10:42:09;;;;;;;129.87;33.10;;;4.80;99.90;;;;;;5021803;28;20486;-73
2021/12/24 10:44:39;;;;;;;252.73;42.13;;;4.80;99.90;;;;;;5027919;28;20451;-72
2021/12/24 10:47:15;;;;;;;117.73;27.60;;;4.80;99.90;;;;;;5033913;28;20426;-73
2021/12/24 10:50:04;;;;;;;236.43;38.17;;;4.80;99.90;;;;;;5033882;28;20518;-73
2021/12/24 10:52:57;;;;;;;272.90;41.30;;;4.80;99.90;;;;;;5033841;28;20437;-73
2021/12/24 10:55:30;;;;;;;180.10;36.90;;;4.70;99.90;;;;;;5033530;28;20463;-73
2021/12/24 10:58:00;;;;;;;153.57;40.07;;;4.70;99.90;;;;;;5033551;28;20442;-73
2021/12/24 11:00:32;;;;;;;176.83;46.43;;;4.70;99.90;;;;;;5031756;28;21001;-72
2021/12/24 11:03:02;;;;;;;206.13;36.10;;;4.70;99.90;;;;;;5022525;28;20446;-73
2021/12/24 11:05:34;;;;;;;112.57;24.03;;;4.60;99.90;;;;;;5034003;28;20427;-73
2021/12/24 11:08:04;;;;;;;283.43;43.27;;;4.60;99.90;;;;;;5033681;28;20419;-73
2021/12/24 11:10:37;;;;;;;228.63;38.77;;;4.60;99.90;;;;;;5033889;28;20471;-73
2021/12/24 11:13:12;;;;;;;280.37;37.73;;;4.60;99.90;;;;;;5033588;28;20424;-73
2021/12/24 11:15:47;;;;;;;235.13;40.50;;;4.60;99.90;;;;;;5033668;28;20465;-72
2021/12/24 11:18:19;;;;;;;147.20;34.77;;;4.60;99.90;;;;;;5033316;28;20774;-72
2021/12/24 11:20:52;;;;;;;254.93;41.73;;;4.60;99.90;;;;;;5033673;28;20455;-72
2021/12/24 11:23:21;;;;;;;206.43;32.67;;;4.60;99.90;;;;;;5033321;28;20451;-73
2021/12/24 11:25:54;;;;;;;166.60;39.60;;;4.60;99.90;;;;;;5031883;28;20462;-73
2021/12/24 11:28:24;;;;;;;150.97;33.73;;;4.60;99.90;;;;;;5033642;28;20518;-73
2021/12/24 11:30:54;;;;;;;174.67;25.37;;;4.50;99.90;;;;;;5033703;28;20975;-72
2021/12/24 11:33:24;;;;;;;179.13;35.20;;;4.50;99.90;;;;;;5033544;28;20952;-72
2021/12/24 11:35:54;;;;;;;226.23;34.27;;;4.50;99.90;;;;;;5032265;28;20463;-72
2021/12/24 11:38:24;;;;;;;57.70;21.60;;;4.50;99.90;;;;;;5033614;28;20447;-72
2021/12/24 11:40:57;;;;;;;188.63;31.83;;;4.50;99.90;;;;;;5037338;28;20466;-72
2021/12/24 11:43:29;;;;;;;185.83;24.43;;;4.60;99.90;;;;;;5044859;28;20522;-72
2021/12/24 11:45:58;;;;;;;152.57;37.30;;;4.50;99.90;;;;;;5036803;28;20445;-72
2021/12/24 11:48:27;;;;;;;193.97;37.00;;;4.50;99.90;;;;;;5042778;28;20464;-72
2021/12/24 11:50:56;;;;;;;194.20;33.87;;;4.50;99.90;;;;;;5020943;28;20470;-72
2021/12/24 11:53:26;;;;;;;146.63;23.40;;;4.50;99.90;;;;;;5035756;28;20435;-72
2021/12/24 11:55:55;;;;;;;125.50;24.47;;;4.50;99.90;;;;;;5035754;28;20832;-72
2021/12/24 11:58:25;;;;;;;280.10;38.07;;;4.60;99.90;;;;;;5035148;28;20531;-72
2021/12/24 12:00:56;;;;;;;211.83;37.57;;;4.60;99.90;;;;;;5035558;28;20454;-72
2021/12/24 12:03:33;;;;;;;167.40;29.33;;;4.60;99.90;;;;;;5035255;28;20419;-72
2021/12/24 12:06:02;;;;;;;100.90;23.30;;;4.60;99.90;;;;;;5034370;28;20434;-72
2021/12/24 12:08:39;;;;;;;183.17;38.00;;;4.60;99.90;;;;;;5033466;28;20430;-72
2021/12/24 12:11:19;;;;;;;137.60;35.47;;;4.60;99.90;;;;;;5034343;28;20546;-72
2021/12/24 12:13:51;;;;;;;221.93;32.77;;;4.50;99.90;;;;;;5036961;28;20844;-72
2021/12/24 12:16:21;;;;;;;108.90;33.07;;;4.60;99.90;;;;;;5036831;28;20430;-72
2021/12/24 12:19:02;;;;;;;99.60;43.23;;;4.50;99.90;;;;;;5037429;28;20422;-72
2021/12/24 12:21:40;;;;;;;208.07;45.70;;;4.50;99.90;;;;;;5036807;28;20497;-71
2021/12/24 12:27:17;;;;;;;41.50;38.67;;;4.50;99.90;;;;;;5025495;28;20558;-73
2021/12/24 12:29:46;;;;;;;190.43;41.70;;;4.40;99.90;;;;;;4999313;28;20476;-72
2021/12/24 12:32:42;;;;;;;145.57;35.37;;;4.40;99.90;;;;;;4999118;28;20466;-73
2021/12/24 12:35:11;;;;;;;42.63;39.87;;;4.40;99.90;;;;;;5024871;28;20509;-73
2021/12/24 12:37:45;;;;;;;287.00;50.77;;;4.40;99.90;;;;;;5025498;28;20800;-73
2021/12/24 12:40:35;;;;;;;161.80;42.10;;;4.40;99.90;;;;;;5037292;28;20849;-73
2021/12/24 12:43:20;;;;;;;191.27;41.20;;;4.40;99.90;;;;;;5036166;28;20812;-73
2021/12/24 12:46:06;;;;;;;264.87;47.60;;;4.40;99.90;;;;;;5034229;28;20449;-73
2021/12/24 12:48:54;;;;;;;124.13;36.67;;;4.30;99.90;;;;;;5035933;28;20545;-73
2021/12/24 12:51:52;;;;;;;44.20;40.83;;;4.30;99.90;;;;;;5036396;28;20470;-73
2021/12/24 12:54:37;;;;;;;202.23;57.77;;;4.30;99.90;;;;;;5035927;28;20533;-73
2021/12/24 12:57:24;;;;;;;56.80;53.53;;;4.30;99.90;;;;;;5035862;28;20812;-71
2021/12/24 13:00:19;;;;;;;100.33;92.10;;;4.30;99.90;;;;;;5036135;28;20795;-73
2021/12/24 13:03:18;;;;;;;72.53;66.77;;;4.20;99.90;;;;;;5018142;28;20448;-73
2021/12/24 13:06:09;;;;;;;56.80;53.10;;;4.20;99.90;;;;;;5034118;28;20486;-73
2021/12/24 13:08:44;;;;;;;226.23;47.70;;;4.20;99.90;;;;;;5032350;28;20816;-73
2021/12/24 13:11:15;;;;;;;42.07;39.37;;;4.10;99.90;;;;;;5035458;28;21040;-73
2021/12/24 13:13:51;;;;;;;34.77;32.40;;;4.10;99.90;;;;;;5035639;28;20534;-73
2021/12/24 13:16:23;;;;;;;37.77;34.77;;;4.10;99.90;;;;;;5035693;28;20454;-73
2021/12/24 13:18:58;;;;;;;45.27;42.33;;;4.10;99.90;;;;;;5035620;28;20927;-73
2021/12/24 13:24:17;;;;;;;84.90;77.80;;;4.10;99.90;;;;;;5033581;28;20438;-73
2021/12/24 13:26:48;;;;;;;86.30;77.90;;;4.10;99.90;;;;;;5035689;28;20775;-73
2021/12/24 13:29:17;;;;;;;72.27;64.03;;;4.10;99.90;;;;;;5035225;28;20419;-73
2021/12/24 13:31:54;;;;;;;83.03;63.10;;;4.10;99.90;;;;;;5035076;28;20502;-72
2021/12/24 13:34:24;;;;;;;61.77;57.53;;;4.10;99.90;;;;;;5035496;28;20788;-73
2021/12/24 13:36:54;;;;;;;79.10;64.30;;;4.10;99.90;;;;;;5035379;28;20461;-72
2021/12/24 13:39:24;;;;;;;79.33;72.00;;;4.10;99.90;;;;;;5034764;28;20942;-72
2021/12/24 13:42:01;;;;;;;74.50;70.03;;;4.10;99.90;;;;;;5034823;28;20912;-72
2021/12/24 13:44:31;;;;;;;109.47;98.67;;;4.00;99.90;;;;;;5035215;28;20865;-72
2021/12/24 13:47:11;;;;;;;1999.90;563.27;;;4.00;99.90;;;;;;5035048;28;20438;-72
2021/12/24 13:50:24;;;;;;;78.60;71.73;;;4.00;99.90;;;;;;5017098;28;20461;-72
2021/12/24 13:55:45;;;;;;;639.40;217.57;;;4.00;99.90;;;;;;4999226;28;20475;-72
2021/12/24 13:58:15;;;;;;;106.00;96.47;;;4.00;99.90;;;;;;5034947;28;20785;-72
2021/12/24 14:00:49;;;;;;;76.43;69.77;;;4.00;99.90;;;;;;5034461;28;20451;-72
2021/12/24 14:03:22;;;;;;;64.53;59.00;;;4.00;99.90;;;;;;5034572;28;20445;-72
2021/12/24 14:05:53;;;;;;;48.93;45.13;;;4.00;99.90;;;;;;5020504;28;20473;-72
2021/12/24 14:08:24;;;;;;;221.87;46.20;;;4.00;99.90;;;;;;5034718;28;20419;-73
2021/12/24 14:11:05;;;;;;;107.37;58.53;;;4.00;99.90;;;;;;5033012;28;20471;-72
2021/12/24 14:13:37;;;;;;;59.47;55.33;;;4.00;99.90;;;;;;5034748;28;20419;-73
2021/12/24 14:16:12;;;;;;;114.07;97.80;;;4.00;99.90;;;;;;5034679;28;20463;-73
2021/12/24 14:18:45;;;;;;;83.13;78.70;;;4.00;99.90;;;;;;5034548;28;20900;-73
2021/12/24 14:21:47;;;;;;;46.27;42.27;;;4.00;99.90;;;;;;5032595;28;21022;-72
2021/12/24 14:24:19;;;;;;;105.33;98.07;;;4.10;99.90;;;;;;5034135;28;20804;-73
2021/12/24 14:26:53;;;;;;;106.43;52.40;;;4.10;99.90;;;;;;5034133;28;20514;-72